sensor_id;sensor_type;location;lat;lon;timestamp;temperature;humidity
10231;DHT22;62604;49.432;8.680;2022-12-28T00:01:21;5.10;99.90
10231;DHT22;62604;49.432;8.680;2022-12-28T00:03:49;5.10;99.90
10231;DHT22;62604;49.432;8.680;2022-12-28T00:06:17;5.10;99.90
10231;DHT22;62604;49.432;8.680;2022-12-28T00:08:44;5.00;99.90
10231;DHT22;62604;49.432;8.680;2022-12-28T00:11:13;5.10;99.90
10231;DHT22;62604;49.432;8.680;2022-12-28T00:13:41;5.10;99.90
10231;DHT22;62604;49.432;8.680;2022-12-28T00:16:22;5.10;99.90
10231;DHT22;62604;49.432;8.680;2022-12-28T00:18:50;5.10;99.90
10231;DHT22;62604;49.432;8.680;2022-12-28T00:21:17;5.10;99.90
10231;DHT22;62604;49.432;8.680;2022-12-28T00:23:44;5.10;99.90
10231;DHT22;62604;49.432;8.680;2022-12-28T00:26:15;5.10;99.90
10231;DHT22;62604;49.432;8.680;2022-12-28T00:28:42;5.10;99.90
10231;DHT22;62604;49.432;8.680;2022-12-28T00:31:10;5.10;99.90
10231;DHT22;62604;49.432;8.680;2022-12-28T00:33:38;5.10;99.90
10231;DHT22;62604;49.432;8.680;2022-12-28T00:36:06;5.20;99.90
10231;DHT22;62604;49.432;8.680;2022-12-28T00:38:34;5.20;99.90
10231;DHT22;62604;49.432;8.680;2022-12-28T00:41:02;5.30;99.90
10231;DHT22;62604;49.432;8.680;2022-12-28T00:43:29;5.30;99.90
10231;DHT22;62604;49.432;8.680;2022-12-28T00:45:57;5.30;99.90
10231;DHT22;62604;49.432;8.680;2022-12-28T00:48:25;5.30;99.90
10231;DHT22;62604;49.432;8.680;2022-12-28T00:50:52;5.30;99.90
10231;DHT22;62604;49.432;8.680;2022-12-28T00:53:26;5.30;99.90
10231;DHT22;62604;49.432;8.680;2022-12-28T00:55:53;5.30;99.90
10231;DHT22;62604;49.432;8.680;2022-12-28T00:58:20;5.30;99.90
10231;DHT22;62604;49.432;8.680;2022-12-28T01:00:48;5.30;99.90
10231;DHT22;62604;49.432;8.680;2022-12-28T01:03:15;5.30;99.90
10231;DHT22;62604;49.432;8.680;2022-12-28T01:05:43;5.30;99.90
10231;DHT22;62604;49.432;8.680;2022-12-28T01:08:10;5.30;99.90
10231;DHT22;62604;49.432;8.680;2022-12-28T01:10:38;5.30;99.90
10231;DHT22;62604;49.432;8.680;2022-12-28T01:13:05;5.40;99.90
10231;DHT22;62604;49.432;8.680;2022-12-28T01:15:32;5.40;99.90
10231;DHT22;62604;49.432;8.680;2022-12-28T01:17:58;5.40;99.90
10231;DHT22;62604;49.432;8.680;2022-12-28T01:20:26;5.40;99.90
10231;DHT22;62604;49.432;8.680;2022-12-28T01:22:54;5.40;99.90
10231;DHT22;62604;49.432;8.680;2022-12-28T01:25:21;5.50;99.90
10231;DHT22;62604;49.432;8.680;2022-12-28T01:27:48;5.50;99.90
10231;DHT22;62604;49.432;8.680;2022-12-28T01:30:15;5.50;99.90
10231;DHT22;62604;49.432;8.680;2022-12-28T01:32:42;5.50;99.90
10231;DHT22;62604;49.432;8.680;2022-12-28T01:35:09;5.50;99.90
10231;DHT22;62604;49.432;8.680;2022-12-28T01:37:36;5.50;99.90
10231;DHT22;62604;49.432;8.680;2022-12-28T01:40:05;5.50;99.90
10231;DHT22;62604;49.432;8.680;2022-12-28T01:42:32;5.50;99.90
10231;DHT22;62604;49.432;8.680;2022-12-28T01:45:14;5.50;99.90
10231;DHT22;62604;49.432;8.680;2022-12-28T01:47:42;5.50;99.90
10231;DHT22;62604;49.432;8.680;2022-12-28T01:50:11;5.50;99.90
10231;DHT22;62604;49.432;8.680;2022-12-28T01:52:44;5.50;99.90
10231;DHT22;62604;49.432;8.680;2022-12-28T01:55:16;5.50;99.90
10231;DHT22;62604;49.432;8.680;2022-12-28T01:57:47;5.50;99.90
10231;DHT22;62604;49.432;8.680;2022-12-28T02:00:16;5.50;99.90
10231;DHT22;62604;49.432;8.680;2022-12-28T02:02:47;5.50;99.90
10231;DHT22;62604;49.432;8.680;2022-12-28T02:05:15;5.50;99.90
10231;DHT22;62604;49.432;8.680;2022-12-28T02:07:48;5.50;99.90
10231;DHT22;62604;49.432;8.680;2022-12-28T02:10:19;5.60;99.90
10231;DHT22;62604;49.432;8.680;2022-12-28T02:12:46;5.60;99.90
10231;DHT22;62604;49.432;8.680;2022-12-28T02:15:13;5.60;99.90
10231;DHT22;62604;49.432;8.680;2022-12-28T02:17:40;5.60;99.90
10231;DHT22;62604;49.432;8.680;2022-12-28T02:20:07;5.70;99.90
10231;DHT22;62604;49.432;8.680;2022-12-28T02:23:01;5.70;99.90
10231;DHT22;62604;49.432;8.680;2022-12-28T02:31:51;5.90;99.90
10231;DHT22;62604;49.432;8.680;2022-12-28T02:34:25;6.00;99.90
10231;DHT22;62604;49.432;8.680;2022-12-28T02:36:56;6.00;99.90
10231;DHT22;62604;49.432;8.680;2022-12-28T02:39:30;6.00;99.90
10231;DHT22;62604;49.432;8.680;2022-12-28T02:41:58;6.00;99.90
10231;DHT22;62604;49.432;8.680;2022-12-28T02:44:25;6.00;99.90
10231;DHT22;62604;49.432;8.680;2022-12-28T02:47:13;6.00;99.90
10231;DHT22;62604;49.432;8.680;2022-12-28T02:49:58;6.10;99.90
10231;DHT22;62604;49.432;8.680;2022-12-28T02:55:41;6.20;99.90
10231;DHT22;62604;49.432;8.680;2022-12-28T02:58:55;6.20;99.90
10231;DHT22;62604;49.432;8.680;2022-12-28T03:01:36;6.20;99.90
10231;DHT22;62604;49.432;8.680;2022-12-28T03:04:15;6.20;99.90
10231;DHT22;62604;49.432;8.680;2022-12-28T03:06:48;6.20;99.90
10231;DHT22;62604;49.432;8.680;2022-12-28T03:09:40;6.20;99.90
10231;DHT22;62604;49.432;8.680;2022-12-28T03:12:15;6.20;99.90
10231;DHT22;62604;49.432;8.680;2022-12-28T03:14:48;6.20;99.90
10231;DHT22;62604;49.432;8.680;2022-12-28T03:17:19;6.20;99.90
10231;DHT22;62604;49.432;8.680;2022-12-28T03:20:10;6.10;99.90
10231;DHT22;62604;49.432;8.680;2022-12-28T03:22:58;6.10;99.90
10231;DHT22;62604;49.432;8.680;2022-12-28T03:25:44;6.10;99.90
10231;DHT22;62604;49.432;8.680;2022-12-28T03:28:30;6.10;99.90
10231;DHT22;62604;49.432;8.680;2022-12-28T03:31:18;6.00;99.90
10231;DHT22;62604;49.432;8.680;2022-12-28T03:33:47;6.00;99.90
10231;DHT22;62604;49.432;8.680;2022-12-28T03:36:19;6.00;99.90
10231;DHT22;62604;49.432;8.680;2022-12-28T03:38:54;6.00;99.90
10231;DHT22;62604;49.432;8.680;2022-12-28T03:41:36;6.00;99.90
10231;DHT22;62604;49.432;8.680;2022-12-28T03:44:10;6.00;99.90
10231;DHT22;62604;49.432;8.680;2022-12-28T03:46:43;5.90;99.90
10231;DHT22;62604;49.432;8.680;2022-12-28T03:49:11;5.90;99.90
10231;DHT22;62604;49.432;8.680;2022-12-28T03:51:39;5.90;99.90
10231;DHT22;62604;49.432;8.680;2022-12-28T03:54:07;5.90;99.90
10231;DHT22;62604;49.432;8.680;2022-12-28T03:56:45;5.80;99.90
10231;DHT22;62604;49.432;8.680;2022-12-28T03:59:13;5.80;99.90
10231;DHT22;62604;49.432;8.680;2022-12-28T04:01:41;5.80;99.90
10231;DHT22;62604;49.432;8.680;2022-12-28T04:04:09;5.80;99.90
10231;DHT22;62604;49.432;8.680;2022-12-28T04:06:39;5.70;99.90
10231;DHT22;62604;49.432;8.680;2022-12-28T04:09:09;5.80;99.90
10231;DHT22;62604;49.432;8.680;2022-12-28T04:11:36;5.80;99.90
10231;DHT22;62604;49.432;8.680;2022-12-28T04:14:04;5.80;99.90
10231;DHT22;62604;49.432;8.680;2022-12-28T04:16:34;5.80;99.90
10231;DHT22;62604;49.432;8.680;2022-12-28T04:19:01;5.80;99.90
10231;DHT22;62604;49.432;8.680;2022-12-28T04:21:29;5.80;99.90
10231;DHT22;62604;49.432;8.680;2022-12-28T04:23:59;5.80;99.90
10231;DHT22;62604;49.432;8.680;2022-12-28T04:26:27;5.80;99.90
10231;DHT22;62604;49.432;8.680;2022-12-28T04:28:55;5.80;99.90
10231;DHT22;62604;49.432;8.680;2022-12-28T04:31:27;5.80;99.90
10231;DHT22;62604;49.432;8.680;2022-12-28T04:33:56;5.80;99.90
10231;DHT22;62604;49.432;8.680;2022-12-28T04:36:24;5.90;99.90
10231;DHT22;62604;49.432;8.680;2022-12-28T04:38:53;5.90;99.90
10231;DHT22;62604;49.432;8.680;2022-12-28T04:41:21;5.90;99.90
10231;DHT22;62604;49.432;8.680;2022-12-28T04:43:48;5.90;99.90
10231;DHT22;62604;49.432;8.680;2022-12-28T04:46:16;6.00;99.90
10231;DHT22;62604;49.432;8.680;2022-12-28T04:48:44;6.10;99.90
10231;DHT22;62604;49.432;8.680;2022-12-28T04:51:16;6.10;99.90
10231;DHT22;62604;49.432;8.680;2022-12-28T04:53:44;6.10;99.90
10231;DHT22;62604;49.432;8.680;2022-12-28T04:56:12;6.10;99.90
10231;DHT22;62604;49.432;8.680;2022-12-28T04:58:43;6.20;99.90
10231;DHT22;62604;49.432;8.680;2022-12-28T05:01:12;6.20;99.90
10231;DHT22;62604;49.432;8.680;2022-12-28T05:03:43;6.20;99.90
10231;DHT22;62604;49.432;8.680;2022-12-28T05:06:11;6.30;99.90
10231;DHT22;62604;49.432;8.680;2022-12-28T05:08:43;6.20;99.90
10231;DHT22;62604;49.432;8.680;2022-12-28T05:11:12;6.20;99.90
10231;DHT22;62604;49.432;8.680;2022-12-28T05:13:44;6.30;99.90
10231;DHT22;62604;49.432;8.680;2022-12-28T05:16:13;6.20;99.90
10231;DHT22;62604;49.432;8.680;2022-12-28T05:18:42;6.20;99.90
10231;DHT22;62604;49.432;8.680;2022-12-28T05:21:13;6.20;99.90
10231;DHT22;62604;49.432;8.680;2022-12-28T05:23:42;6.30;99.90
10231;DHT22;62604;49.432;8.680;2022-12-28T05:26:11;6.30;99.90
10231;DHT22;62604;49.432;8.680;2022-12-28T05:28:42;6.30;99.90
10231;DHT22;62604;49.432;8.680;2022-12-28T05:31:13;6.30;99.90
10231;DHT22;62604;49.432;8.680;2022-12-28T05:33:42;6.30;99.90
10231;DHT22;62604;49.432;8.680;2022-12-28T05:36:11;6.30;99.90
10231;DHT22;62604;49.432;8.680;2022-12-28T05:38:39;6.30;99.90
10231;DHT22;62604;49.432;8.680;2022-12-28T05:41:07;6.30;99.90
10231;DHT22;62604;49.432;8.680;2022-12-28T05:43:37;6.30;99.90
10231;DHT22;62604;49.432;8.680;2022-12-28T05:46:07;6.30;99.90
10231;DHT22;62604;49.432;8.680;2022-12-28T05:48:38;6.30;99.90
10231;DHT22;62604;49.432;8.680;2022-12-28T05:51:07;6.40;99.90
10231;DHT22;62604;49.432;8.680;2022-12-28T05:53:36;6.40;99.90
10231;DHT22;62604;49.432;8.680;2022-12-28T05:56:05;6.40;99.90
10231;DHT22;62604;49.432;8.680;2022-12-28T05:58:33;6.50;99.90
10231;DHT22;62604;49.432;8.680;2022-12-28T06:01:06;6.50;99.90
10231;DHT22;62604;49.432;8.680;2022-12-28T06:03:35;6.50;99.90
10231;DHT22;62604;49.432;8.680;2022-12-28T06:06:03;6.60;99.90
10231;DHT22;62604;49.432;8.680;2022-12-28T06:08:31;6.60;99.90
10231;DHT22;62604;49.432;8.680;2022-12-28T06:11:01;6.60;99.90
10231;DHT22;62604;49.432;8.680;2022-12-28T06:13:30;6.60;99.90
10231;DHT22;62604;49.432;8.680;2022-12-28T06:16:09;6.60;99.90
10231;DHT22;62604;49.432;8.680;2022-12-28T06:18:37;6.50;99.90
10231;DHT22;62604;49.432;8.680;2022-12-28T06:21:07;6.50;99.90
10231;DHT22;62604;49.432;8.680;2022-12-28T06:23:35;6.50;99.90
10231;DHT22;62604;49.432;8.680;2022-12-28T06:26:03;6.50;99.90
10231;DHT22;62604;49.432;8.680;2022-12-28T06:28:32;6.50;99.90
10231;DHT22;62604;49.432;8.680;2022-12-28T06:31:02;6.60;99.90
10231;DHT22;62604;49.432;8.680;2022-12-28T06:33:31;6.70;99.90
10231;DHT22;62604;49.432;8.680;2022-12-28T06:36:00;6.60;99.90
10231;DHT22;62604;49.432;8.680;2022-12-28T06:38:33;6.60;99.90
10231;DHT22;62604;49.432;8.680;2022-12-28T06:41:05;6.60;99.90
10231;DHT22;62604;49.432;8.680;2022-12-28T06:43:34;6.60;99.90
10231;DHT22;62604;49.432;8.680;2022-12-28T06:46:02;6.50;99.90
10231;DHT22;62604;49.432;8.680;2022-12-28T06:48:32;6.60;99.90
10231;DHT22;62604;49.432;8.680;2022-12-28T06:51:03;6.60;99.90
10231;DHT22;62604;49.432;8.680;2022-12-28T06:53:34;6.60;99.90
10231;DHT22;62604;49.432;8.680;2022-12-28T06:56:04;6.60;99.90
10231;DHT22;62604;49.432;8.680;2022-12-28T06:58:34;6.50;99.90
10231;DHT22;62604;49.432;8.680;2022-12-28T07:01:08;6.50;99.90
10231;DHT22;62604;49.432;8.680;2022-12-28T07:03:39;6.50;99.90
10231;DHT22;62604;49.432;8.680;2022-12-28T07:06:09;6.50;99.90
10231;DHT22;62604;49.432;8.680;2022-12-28T07:08:37;6.50;99.90
10231;DHT22;62604;49.432;8.680;2022-12-28T07:11:08;6.60;99.90
10231;DHT22;62604;49.432;8.680;2022-12-28T07:13:38;6.60;99.90
10231;DHT22;62604;49.432;8.680;2022-12-28T07:16:10;6.60;99.90
10231;DHT22;62604;49.432;8.680;2022-12-28T07:18:38;6.70;99.90
10231;DHT22;62604;49.432;8.680;2022-12-28T07:21:09;6.70;99.90
10231;DHT22;62604;49.432;8.680;2022-12-28T07:23:38;6.80;99.90
10231;DHT22;62604;49.432;8.680;2022-12-28T07:26:06;6.80;99.90
10231;DHT22;62604;49.432;8.680;2022-12-28T07:28:35;6.80;99.90
10231;DHT22;62604;49.432;8.680;2022-12-28T07:31:06;6.80;99.90
10231;DHT22;62604;49.432;8.680;2022-12-28T07:33:35;6.80;99.90
10231;DHT22;62604;49.432;8.680;2022-12-28T07:36:06;6.90;99.90
10231;DHT22;62604;49.432;8.680;2022-12-28T07:38:41;7.00;99.90
10231;DHT22;62604;49.432;8.680;2022-12-28T07:41:15;7.10;99.90
10231;DHT22;62604;49.432;8.680;2022-12-28T07:43:44;7.10;99.90
10231;DHT22;62604;49.432;8.680;2022-12-28T07:46:12;7.10;99.90
10231;DHT22;62604;49.432;8.680;2022-12-28T07:48:42;7.10;99.90
10231;DHT22;62604;49.432;8.680;2022-12-28T07:51:12;7.10;99.90
10231;DHT22;62604;49.432;8.680;2022-12-28T07:53:50;7.10;99.90
10231;DHT22;62604;49.432;8.680;2022-12-28T07:56:18;7.20;99.90
10231;DHT22;62604;49.432;8.680;2022-12-28T07:58:51;7.20;99.90
10231;DHT22;62604;49.432;8.680;2022-12-28T08:01:20;7.30;99.90
10231;DHT22;62604;49.432;8.680;2022-12-28T08:03:52;7.30;99.90
10231;DHT22;62604;49.432;8.680;2022-12-28T08:06:21;7.30;99.90
10231;DHT22;62604;49.432;8.680;2022-12-28T08:08:52;7.40;99.80
10231;DHT22;62604;49.432;8.680;2022-12-28T08:11:20;7.40;99.40
10231;DHT22;62604;49.432;8.680;2022-12-28T08:13:50;7.50;99.10
10231;DHT22;62604;49.432;8.680;2022-12-28T08:16:18;7.50;98.90
10231;DHT22;62604;49.432;8.680;2022-12-28T08:18:47;7.60;98.50
10231;DHT22;62604;49.432;8.680;2022-12-28T08:21:16;7.60;98.40
10231;DHT22;62604;49.432;8.680;2022-12-28T08:23:45;7.70;98.40
10231;DHT22;62604;49.432;8.680;2022-12-28T08:26:13;7.60;98.50
10231;DHT22;62604;49.432;8.680;2022-12-28T08:28:42;7.70;98.30
10231;DHT22;62604;49.432;8.680;2022-12-28T08:31:11;7.70;98.30
10231;DHT22;62604;49.432;8.680;2022-12-28T08:33:39;7.70;97.90
10231;DHT22;62604;49.432;8.680;2022-12-28T08:36:07;7.80;98.70
10231;DHT22;62604;49.432;8.680;2022-12-28T08:38:35;7.70;97.90
10231;DHT22;62604;49.432;8.680;2022-12-28T08:41:04;7.80;97.60
10231;DHT22;62604;49.432;8.680;2022-12-28T08:43:33;7.90;97.30
10231;DHT22;62604;49.432;8.680;2022-12-28T08:46:01;7.90;97.10
10231;DHT22;62604;49.432;8.680;2022-12-28T08:48:30;7.90;96.80
10231;DHT22;62604;49.432;8.680;2022-12-28T08:51:00;8.00;96.50
10231;DHT22;62604;49.432;8.680;2022-12-28T08:53:28;8.00;97.00
10231;DHT22;62604;49.432;8.680;2022-12-28T08:55:54;8.00;96.70
10231;DHT22;62604;49.432;8.680;2022-12-28T08:58:23;8.00;96.70
10231;DHT22;62604;49.432;8.680;2022-12-28T09:00:50;8.00;96.50
10231;DHT22;62604;49.432;8.680;2022-12-28T09:03:16;8.00;96.40
10231;DHT22;62604;49.432;8.680;2022-12-28T09:05:43;8.00;96.50
10231;DHT22;62604;49.432;8.680;2022-12-28T09:08:10;8.00;96.40
10231;DHT22;62604;49.432;8.680;2022-12-28T09:10:37;8.10;96.30
10231;DHT22;62604;49.432;8.680;2022-12-28T09:13:04;8.00;96.00
10231;DHT22;62604;49.432;8.680;2022-12-28T09:15:32;8.10;95.90
10231;DHT22;62604;49.432;8.680;2022-12-28T09:17:59;8.10;95.80
10231;DHT22;62604;49.432;8.680;2022-12-28T09:20:26;8.10;95.90
10231;DHT22;62604;49.432;8.680;2022-12-28T09:22:53;8.20;95.80
10231;DHT22;62604;49.432;8.680;2022-12-28T09:25:20;8.20;95.60
10231;DHT22;62604;49.432;8.680;2022-12-28T09:27:47;8.30;95.10
10231;DHT22;62604;49.432;8.680;2022-12-28T09:30:14;8.30;95.40
10231;DHT22;62604;49.432;8.680;2022-12-28T09:32:43;8.40;95.10
10231;DHT22;62604;49.432;8.680;2022-12-28T09:35:30;8.40;94.60
10231;DHT22;62604;49.432;8.680;2022-12-28T09:37:57;8.40;94.60
10231;DHT22;62604;49.432;8.680;2022-12-28T09:40:24;8.40;94.50
10231;DHT22;62604;49.432;8.680;2022-12-28T09:42:51;8.40;94.90
10231;DHT22;62604;49.432;8.680;2022-12-28T09:45:21;8.40;94.80
10231;DHT22;62604;49.432;8.680;2022-12-28T09:47:58;8.50;94.70
10231;DHT22;62604;49.432;8.680;2022-12-28T09:50:30;8.50;95.00
10231;DHT22;62604;49.432;8.680;2022-12-28T09:53:10;8.60;94.30
10231;DHT22;62604;49.432;8.680;2022-12-28T09:55:44;8.70;94.10
10231;DHT22;62604;49.432;8.680;2022-12-28T09:58:15;8.70;94.30
10231;DHT22;62604;49.432;8.680;2022-12-28T10:00:44;8.70;93.90
10231;DHT22;62604;49.432;8.680;2022-12-28T10:03:17;8.70;93.90
10231;DHT22;62604;49.432;8.680;2022-12-28T10:05:45;8.70;94.20
10231;DHT22;62604;49.432;8.680;2022-12-28T10:08:16;8.70;93.80
10231;DHT22;62604;49.432;8.680;2022-12-28T10:10:47;8.70;93.80
10231;DHT22;62604;49.432;8.680;2022-12-28T10:13:17;8.70;93.90
10231;DHT22;62604;49.432;8.680;2022-12-28T10:15:45;8.80;94.10
10231;DHT22;62604;49.432;8.680;2022-12-28T10:18:14;8.80;94.10
10231;DHT22;62604;49.432;8.680;2022-12-28T10:20:43;9.00;93.90
10231;DHT22;62604;49.432;8.680;2022-12-28T10:23:13;9.10;93.00
10231;DHT22;62604;49.432;8.680;2022-12-28T10:25:42;9.30;93.10
10231;DHT22;62604;49.432;8.680;2022-12-28T10:28:09;9.30;92.30
10231;DHT22;62604;49.432;8.680;2022-12-28T10:30:44;9.50;91.90
10231;DHT22;62604;49.432;8.680;2022-12-28T10:33:17;9.50;91.50
10231;DHT22;62604;49.432;8.680;2022-12-28T10:35:49;9.50;91.30
10231;DHT22;62604;49.432;8.680;2022-12-28T10:38:21;9.70;91.20
10231;DHT22;62604;49.432;8.680;2022-12-28T10:40:57;9.60;91.10
10231;DHT22;62604;49.432;8.680;2022-12-28T10:43:28;9.60;91.20
10231;DHT22;62604;49.432;8.680;2022-12-28T10:45:57;9.70;91.20
10231;DHT22;62604;49.432;8.680;2022-12-28T10:48:31;9.70;91.00
10231;DHT22;62604;49.432;8.680;2022-12-28T10:51:00;9.70;90.90
10231;DHT22;62604;49.432;8.680;2022-12-28T10:53:41;9.50;91.30
10231;DHT22;62604;49.432;8.680;2022-12-28T10:56:22;9.50;91.90
10231;DHT22;62604;49.432;8.680;2022-12-28T10:58:50;9.50;91.80
10231;DHT22;62604;49.432;8.680;2022-12-28T11:01:23;9.50;91.40
10231;DHT22;62604;49.432;8.680;2022-12-28T11:04:02;9.60;91.70
10231;DHT22;62604;49.432;8.680;2022-12-28T11:06:30;9.70;91.70
10231;DHT22;62604;49.432;8.680;2022-12-28T11:11:42;9.90;91.00
10231;DHT22;62604;49.432;8.680;2022-12-28T11:14:19;10.00;90.20
10231;DHT22;62604;49.432;8.680;2022-12-28T11:16:50;9.90;90.70
10231;DHT22;62604;49.432;8.680;2022-12-28T11:19:19;10.00;91.30
10231;DHT22;62604;49.432;8.680;2022-12-28T11:21:47;10.10;90.60
10231;DHT22;62604;49.432;8.680;2022-12-28T11:24:16;10.30;90.50
10231;DHT22;62604;49.432;8.680;2022-12-28T11:26:46;10.20;90.20
10231;DHT22;62604;49.432;8.680;2022-12-28T11:29:15;10.20;90.70
10231;DHT22;62604;49.432;8.680;2022-12-28T11:31:46;10.20;90.10
10231;DHT22;62604;49.432;8.680;2022-12-28T11:34:17;10.10;90.30
10231;DHT22;62604;49.432;8.680;2022-12-28T11:36:47;9.90;91.20
10231;DHT22;62604;49.432;8.680;2022-12-28T11:39:42;9.90;91.80
10231;DHT22;62604;49.432;8.680;2022-12-28T11:42:10;9.90;92.00
10231;DHT22;62604;49.432;8.680;2022-12-28T11:44:48;9.90;92.20
10231;DHT22;62604;49.432;8.680;2022-12-28T11:47:27;10.00;91.50
10231;DHT22;62604;49.432;8.680;2022-12-28T11:53:19;9.90;92.40
10231;DHT22;62604;49.432;8.680;2022-12-28T11:55:55;9.90;92.60
10231;DHT22;62604;49.432;8.680;2022-12-28T11:59:05;9.90;92.60
10231;DHT22;62604;49.432;8.680;2022-12-28T12:01:46;10.00;92.20
10231;DHT22;62604;49.432;8.680;2022-12-28T12:04:31;10.00;92.10
10231;DHT22;62604;49.432;8.680;2022-12-28T12:07:44;9.90;92.80
10231;DHT22;62604;49.432;8.680;2022-12-28T12:10:27;9.80;92.90
10231;DHT22;62604;49.432;8.680;2022-12-28T12:12:55;9.80;93.60
10231;DHT22;62604;49.432;8.680;2022-12-28T12:15:31;9.70;93.60
10231;DHT22;62604;49.432;8.680;2022-12-28T12:18:01;9.70;93.90
10231;DHT22;62604;49.432;8.680;2022-12-28T12:20:49;9.80;94.00
10231;DHT22;62604;49.432;8.680;2022-12-28T12:23:24;9.80;93.90
10231;DHT22;62604;49.432;8.680;2022-12-28T12:25:56;9.80;93.80
10231;DHT22;62604;49.432;8.680;2022-12-28T12:28:31;9.80;93.90
10231;DHT22;62604;49.432;8.680;2022-12-28T12:31:01;9.90;94.00
10231;DHT22;62604;49.432;8.680;2022-12-28T12:33:33;9.90;93.80
10231;DHT22;62604;49.432;8.680;2022-12-28T12:36:08;10.00;93.10
10231;DHT22;62604;49.432;8.680;2022-12-28T12:42:03;10.00;92.40
10231;DHT22;62604;49.432;8.680;2022-12-28T12:44:39;10.10;92.00
10231;DHT22;62604;49.432;8.680;2022-12-28T12:47:25;10.10;91.70
10231;DHT22;62604;49.432;8.680;2022-12-28T12:50:16;10.20;92.20
10231;DHT22;62604;49.432;8.680;2022-12-28T12:52:53;10.20;91.70
10231;DHT22;62604;49.432;8.680;2022-12-28T12:55:29;10.20;91.70
10231;DHT22;62604;49.432;8.680;2022-12-28T12:58:01;10.30;92.00
10231;DHT22;62604;49.432;8.680;2022-12-28T13:00:38;10.40;91.80
10231;DHT22;62604;49.432;8.680;2022-12-28T13:03:17;10.50;91.90
10231;DHT22;62604;49.432;8.680;2022-12-28T13:05:50;10.50;91.50
10231;DHT22;62604;49.432;8.680;2022-12-28T13:08:21;10.60;91.70
10231;DHT22;62604;49.432;8.680;2022-12-28T13:10:49;10.70;91.70
10231;DHT22;62604;49.432;8.680;2022-12-28T13:13:26;10.60;91.40
10231;DHT22;62604;49.432;8.680;2022-12-28T13:15:58;10.60;91.20
10231;DHT22;62604;49.432;8.680;2022-12-28T13:18:26;10.60;91.30
10231;DHT22;62604;49.432;8.680;2022-12-28T13:20:55;10.50;91.50
10231;DHT22;62604;49.432;8.680;2022-12-28T13:23:23;10.50;91.60
10231;DHT22;62604;49.432;8.680;2022-12-28T13:25:52;10.50;92.10
10231;DHT22;62604;49.432;8.680;2022-12-28T13:28:22;10.40;92.10
10231;DHT22;62604;49.432;8.680;2022-12-28T13:31:04;10.40;92.00
10231;DHT22;62604;49.432;8.680;2022-12-28T13:33:32;10.40;92.10
10231;DHT22;62604;49.432;8.680;2022-12-28T13:36:11;10.40;92.80
10231;DHT22;62604;49.432;8.680;2022-12-28T13:38:38;10.30;92.20
10231;DHT22;62604;49.432;8.680;2022-12-28T13:41:09;10.40;92.30
10231;DHT22;62604;49.432;8.680;2022-12-28T13:46:59;10.30;92.50
10231;DHT22;62604;49.432;8.680;2022-12-28T13:49:29;10.30;92.20
10231;DHT22;62604;49.432;8.680;2022-12-28T13:51:58;10.30;92.40
10231;DHT22;62604;49.432;8.680;2022-12-28T13:54:25;10.30;92.40
10231;DHT22;62604;49.432;8.680;2022-12-28T13:56:55;10.20;92.40
10231;DHT22;62604;49.432;8.680;2022-12-28T13:59:24;10.20;92.30
10231;DHT22;62604;49.432;8.680;2022-12-28T14:01:51;10.20;92.30
10231;DHT22;62604;49.432;8.680;2022-12-28T14:04:21;10.20;92.20
10231;DHT22;62604;49.432;8.680;2022-12-28T14:06:50;10.20;92.10
10231;DHT22;62604;49.432;8.680;2022-12-28T14:09:18;10.20;92.10
10231;DHT22;62604;49.432;8.680;2022-12-28T14:11:47;10.20;91.70
10231;DHT22;62604;49.432;8.680;2022-12-28T14:14:15;10.20;92.00
10231;DHT22;62604;49.432;8.680;2022-12-28T14:16:44;10.20;91.70
10231;DHT22;62604;49.432;8.680;2022-12-28T14:19:12;10.30;91.60
10231;DHT22;62604;49.432;8.680;2022-12-28T14:21:42;10.30;91.50
10231;DHT22;62604;49.432;8.680;2022-12-28T14:24:11;10.30;91.40
10231;DHT22;62604;49.432;8.680;2022-12-28T14:26:45;10.30;90.90
10231;DHT22;62604;49.432;8.680;2022-12-28T14:29:17;10.30;90.60
10231;DHT22;62604;49.432;8.680;2022-12-28T14:31:46;10.40;91.00
10231;DHT22;62604;49.432;8.680;2022-12-28T14:34:22;10.40;90.80
10231;DHT22;62604;49.432;8.680;2022-12-28T14:36:51;10.40;91.00
10231;DHT22;62604;49.432;8.680;2022-12-28T14:39:31;10.40;91.10
10231;DHT22;62604;49.432;8.680;2022-12-28T14:42:01;10.40;90.60
10231;DHT22;62604;49.432;8.680;2022-12-28T14:44:31;10.40;90.70
10231;DHT22;62604;49.432;8.680;2022-12-28T14:47:00;10.40;90.50
10231;DHT22;62604;49.432;8.680;2022-12-28T14:49:33;10.40;90.20
10231;DHT22;62604;49.432;8.680;2022-12-28T14:55:19;10.30;90.80
10231;DHT22;62604;49.432;8.680;2022-12-28T14:57:48;10.40;90.50
10231;DHT22;62604;49.432;8.680;2022-12-28T15:00:27;10.30;90.70
10231;DHT22;62604;49.432;8.680;2022-12-28T15:02:58;10.30;90.80
10231;DHT22;62604;49.432;8.680;2022-12-28T15:05:42;10.30;90.70
10231;DHT22;62604;49.432;8.680;2022-12-28T15:08:10;10.30;90.70
10231;DHT22;62604;49.432;8.680;2022-12-28T15:10:40;10.30;90.70
10231;DHT22;62604;49.432;8.680;2022-12-28T15:13:08;10.30;90.60
10231;DHT22;62604;49.432;8.680;2022-12-28T15:15:35;10.30;90.40
10231;DHT22;62604;49.432;8.680;2022-12-28T15:18:03;10.40;90.50
10231;DHT22;62604;49.432;8.680;2022-12-28T15:20:30;10.30;90.40
10231;DHT22;62604;49.432;8.680;2022-12-28T15:22:57;10.30;90.50
10231;DHT22;62604;49.432;8.680;2022-12-28T15:25:24;10.30;90.40
10231;DHT22;62604;49.432;8.680;2022-12-28T15:27:51;10.30;90.40
10231;DHT22;62604;49.432;8.680;2022-12-28T15:30:19;10.20;90.50
10231;DHT22;62604;49.432;8.680;2022-12-28T15:32:46;10.20;90.50
10231;DHT22;62604;49.432;8.680;2022-12-28T15:35:15;10.10;90.60
10231;DHT22;62604;49.432;8.680;2022-12-28T15:37:43;10.20;90.70
10231;DHT22;62604;49.432;8.680;2022-12-28T15:40:11;10.20;90.50
10231;DHT22;62604;49.432;8.680;2022-12-28T15:42:38;10.20;90.50
10231;DHT22;62604;49.432;8.680;2022-12-28T15:45:05;10.20;90.50
10231;DHT22;62604;49.432;8.680;2022-12-28T15:47:33;10.10;90.40
10231;DHT22;62604;49.432;8.680;2022-12-28T15:50:00;10.20;90.50
10231;DHT22;62604;49.432;8.680;2022-12-28T15:52:29;10.20;90.20
10231;DHT22;62604;49.432;8.680;2022-12-28T15:54:57;10.20;90.30
10231;DHT22;62604;49.432;8.680;2022-12-28T15:57:24;10.20;90.50
10231;DHT22;62604;49.432;8.680;2022-12-28T15:59:51;10.20;90.20
10231;DHT22;62604;49.432;8.680;2022-12-28T16:02:19;10.30;90.10
10231;DHT22;62604;49.432;8.680;2022-12-28T16:04:46;10.30;89.90
10231;DHT22;62604;49.432;8.680;2022-12-28T16:07:16;10.30;89.60
10231;DHT22;62604;49.432;8.680;2022-12-28T16:09:45;10.30;89.30
10231;DHT22;62604;49.432;8.680;2022-12-28T16:12:12;10.40;89.30
10231;DHT22;62604;49.432;8.680;2022-12-28T16:14:43;10.40;89.00
10231;DHT22;62604;49.432;8.680;2022-12-28T16:17:11;10.40;88.90
10231;DHT22;62604;49.432;8.680;2022-12-28T16:19:38;10.40;88.70
10231;DHT22;62604;49.432;8.680;2022-12-28T16:22:05;10.40;89.00
10231;DHT22;62604;49.432;8.680;2022-12-28T16:24:32;10.40;88.50
10231;DHT22;62604;49.432;8.680;2022-12-28T16:27:00;10.40;88.60
10231;DHT22;62604;49.432;8.680;2022-12-28T16:29:27;10.40;88.80
10231;DHT22;62604;49.432;8.680;2022-12-28T16:31:57;10.40;89.00